createdAt,value
2019-03-15T00:01:44.469Z,27.01
2019-03-15T00:04:13.989Z,26.97
2019-03-15T00:06:43.528Z,26.95
2019-03-15T00:09:13.372Z,26.95
2019-03-15T00:11:42.839Z,26.92
2019-03-15T00:14:12.369Z,26.89
2019-03-15T00:16:41.973Z,26.84
2019-03-15T00:19:11.453Z,26.81
2019-03-15T00:21:40.906Z,26.78
2019-03-15T00:24:10.470Z,26.71
2019-03-15T00:26:39.941Z,26.71
2019-03-15T00:29:09.483Z,26.72
2019-03-15T00:31:39.040Z,26.68
2019-03-15T00:34:08.518Z,26.62
2019-03-15T00:36:37.927Z,26.60
2019-03-15T00:39:07.780Z,26.58
2019-03-15T00:41:37.227Z,26.58
2019-03-15T00:44:06.699Z,26.55
2019-03-15T00:46:36.220Z,26.55
2019-03-15T00:49:05.691Z,26.56
2019-03-15T00:51:35.183Z,26.56
2019-03-15T00:54:04.821Z,26.58
2019-03-15T00:56:34.395Z,26.61
2019-03-15T00:59:03.869Z,26.61
2019-03-15T01:01:33.427Z,26.59
2019-03-15T01:04:02.999Z,26.51
2019-03-15T01:06:32.562Z,26.48
2019-03-15T01:09:02.137Z,26.50
2019-03-15T01:11:31.646Z,26.45
2019-03-15T01:14:01.201Z,26.44
2019-03-15T01:16:30.719Z,26.46
2019-03-15T01:19:00.139Z,26.43
2019-03-15T01:21:29.622Z,26.42
2019-03-15T01:23:59.152Z,26.41
2019-03-15T01:26:28.699Z,26.39
2019-03-15T01:28:58.147Z,26.38
2019-03-15T01:31:27.687Z,26.37
2019-03-15T01:33:57.233Z,26.37
2019-03-15T01:36:26.727Z,26.34
2019-03-15T01:38:56.286Z,26.34
2019-03-15T01:41:25.817Z,26.31
2019-03-15T01:43:55.453Z,26.30
2019-03-15T01:46:25.022Z,26.29
2019-03-15T01:48:54.545Z,26.28
2019-03-15T01:51:23.997Z,26.30
2019-03-15T01:53:53.517Z,26.31
2019-03-15T01:56:23.106Z,26.37
2019-03-15T01:58:52.522Z,26.41
2019-03-15T02:01:22.138Z,26.43
2019-03-15T02:03:51.564Z,26.40
2019-03-15T02:06:21.274Z,26.35
2019-03-15T02:08:50.817Z,26.33
2019-03-15T02:11:20.343Z,26.31
2019-03-15T02:13:49.833Z,26.28
2019-03-15T02:16:19.398Z,26.24
2019-03-15T02:18:49.096Z,26.20
2019-03-15T02:21:18.680Z,26.22
2019-03-15T02:23:48.475Z,26.17
2019-03-15T02:26:18.100Z,26.19
2019-03-15T02:28:47.533Z,26.14
2019-03-15T02:31:17.042Z,26.13
2019-03-15T02:33:46.495Z,26.13
2019-03-15T02:36:15.956Z,26.10
2019-03-15T02:38:46.245Z,26.10
2019-03-15T02:41:15.703Z,26.08
2019-03-15T02:43:45.852Z,26.08
2019-03-15T02:46:15.656Z,26.06
2019-03-15T02:48:45.226Z,26.07
2019-03-15T02:51:14.661Z,26.07
2019-03-15T02:53:44.194Z,26.05
2019-03-15T02:56:14.993Z,26.02
2019-03-15T02:58:44.590Z,25.97
2019-03-15T03:01:14.135Z,25.97
2019-03-15T03:03:43.594Z,25.98
2019-03-15T03:06:13.030Z,25.94
2019-03-15T03:08:42.679Z,25.97
2019-03-15T03:11:12.111Z,25.95
2019-03-15T03:13:42.689Z,25.92
2019-03-15T03:16:12.334Z,25.92
2019-03-15T03:18:41.836Z,25.91
2019-03-15T03:21:12.451Z,25.87
2019-03-15T03:23:41.970Z,25.90
2019-03-15T03:26:12.670Z,25.85
2019-03-15T03:28:42.818Z,25.84
2019-03-15T03:31:12.367Z,25.80
2019-03-15T03:33:42.398Z,25.79
2019-03-15T03:36:12.066Z,25.78
2019-03-15T03:38:41.542Z,25.80
2019-03-15T03:41:11.117Z,25.78
2019-03-15T03:43:40.668Z,25.77
2019-03-15T03:46:10.165Z,25.75
2019-03-15T03:48:39.654Z,25.71
2019-03-15T03:51:09.159Z,25.70
2019-03-15T03:53:38.639Z,25.69
2019-03-15T03:56:08.166Z,25.69
2019-03-15T03:58:37.618Z,25.69
2019-03-15T04:01:07.662Z,25.68
2019-03-15T04:03:37.389Z,25.64
2019-03-15T04:06:06.918Z,25.64
2019-03-15T04:08:36.380Z,25.63
2019-03-15T04:11:07.020Z,25.59
2019-03-15T04:13:36.767Z,25.55
2019-03-15T04:16:06.532Z,25.54
2019-03-15T04:18:36.080Z,25.51
2019-03-15T04:21:05.547Z,25.47
2019-03-15T04:23:37.984Z,25.47
2019-03-15T04:26:06.265Z,25.47
2019-03-15T04:28:35.797Z,25.46
2019-03-15T04:31:05.243Z,25.46
2019-03-15T04:33:34.754Z,25.45
2019-03-15T04:36:04.289Z,25.46
2019-03-15T04:38:33.718Z,25.48
2019-03-15T04:41:03.295Z,25.51
2019-03-15T04:43:32.740Z,25.51
2019-03-15T04:46:02.234Z,25.52
2019-03-15T04:48:31.696Z,25.52
2019-03-15T04:51:01.254Z,25.51
2019-03-15T04:53:30.721Z,25.51
2019-03-15T04:56:00.266Z,25.50
2019-03-15T04:58:29.725Z,25.49
2019-03-15T05:00:59.242Z,25.47
2019-03-15T05:03:28.811Z,25.51
2019-03-15T05:06:03.623Z,25.51
2019-03-15T05:08:29.536Z,25.50
2019-03-15T05:10:59.111Z,25.49
2019-03-15T05:13:28.669Z,25.50
2019-03-15T05:15:58.227Z,25.46
2019-03-15T05:18:27.677Z,25.46
2019-03-15T05:20:57.137Z,25.46
2019-03-15T05:23:26.681Z,25.47
2019-03-15T05:25:56.161Z,25.46
2019-03-15T05:28:27.638Z,25.43
2019-03-15T05:30:57.175Z,25.44
2019-03-15T05:33:26.685Z,25.45
2019-03-15T05:35:57.232Z,25.45
2019-03-15T05:38:26.764Z,25.42
2019-03-15T05:40:56.745Z,25.42
2019-03-15T05:43:26.215Z,25.44
2019-03-15T05:45:57.712Z,25.45
2019-03-15T05:48:27.170Z,25.42
2019-03-15T05:50:57.073Z,25.39
2019-03-15T05:53:26.565Z,25.39
2019-03-15T05:55:56.039Z,25.36
2019-03-15T05:58:25.595Z,25.35
2019-03-15T06:00:55.146Z,25.35
2019-03-15T06:03:24.648Z,25.30
2019-03-15T06:05:54.114Z,25.30
2019-03-15T06:08:23.710Z,25.31
2019-03-15T06:10:54.858Z,25.30
2019-03-15T06:13:24.563Z,25.29
2019-03-15T06:15:54.081Z,25.26
2019-03-15T06:18:23.687Z,25.27
2019-03-15T06:20:53.177Z,25.24
2019-03-15T06:23:22.844Z,25.25
2019-03-15T06:25:52.310Z,25.25
2019-03-15T06:28:21.847Z,25.25
2019-03-15T06:30:51.675Z,25.29
2019-03-15T06:33:21.153Z,25.29
2019-03-15T06:35:50.636Z,25.40
2019-03-15T06:38:20.176Z,26.09
2019-03-15T06:40:49.649Z,26.59
2019-03-15T06:43:19.110Z,27.04
2019-03-15T06:45:48.639Z,26.94
2019-03-15T06:48:18.114Z,27.22
2019-03-15T06:50:47.624Z,27.18
2019-03-15T06:53:17.083Z,27.49
2019-03-15T06:55:46.559Z,28.22
2019-03-15T06:58:16.048Z,28.64
2019-03-15T07:00:45.678Z,29.03
2019-03-15T07:03:15.152Z,29.24
2019-03-15T07:05:44.649Z,29.37
2019-03-15T07:08:14.159Z,29.47
2019-03-15T07:10:44.419Z,29.41
2019-03-15T07:13:14.027Z,29.43
2019-03-15T07:15:44.451Z,29.44
2019-03-15T07:18:14.139Z,29.47
2019-03-15T07:20:43.716Z,29.48
2019-03-15T07:23:13.263Z,29.47
2019-03-15T07:25:42.754Z,29.48
2019-03-15T07:28:12.255Z,29.49
2019-03-15T07:30:41.756Z,29.52
2019-03-15T07:33:11.330Z,29.48
2019-03-15T07:35:40.904Z,29.48
2019-03-15T07:38:10.402Z,29.45
2019-03-15T07:40:39.908Z,29.42
2019-03-15T07:43:09.360Z,29.38
2019-03-15T07:45:40.203Z,29.61
2019-03-15T07:48:21.845Z,29.64
2019-03-15T07:50:40.900Z,29.62
2019-03-15T07:53:10.378Z,29.90
2019-03-15T07:55:39.804Z,30.17
2019-03-15T07:58:09.412Z,30.27
2019-03-15T08:00:38.872Z,30.09
2019-03-15T08:03:08.415Z,29.97
2019-03-15T08:05:38.210Z,30.11
2019-03-15T08:08:07.908Z,30.25
2019-03-15T08:10:37.435Z,30.22
2019-03-15T08:13:07.015Z,30.11
2019-03-15T08:15:36.546Z,30.01
2019-03-15T08:18:06.097Z,29.88
2019-03-15T08:20:35.641Z,29.78
2019-03-15T08:23:08.362Z,29.67
2019-03-15T08:25:36.396Z,29.57
2019-03-15T08:28:06.011Z,29.45
2019-03-15T08:30:35.577Z,29.35
2019-03-15T08:33:10.466Z,29.27
2019-03-15T08:35:36.562Z,29.15
2019-03-15T08:38:06.074Z,29.06
2019-03-15T08:40:35.632Z,28.95
2019-03-15T08:43:05.351Z,28.88
2019-03-15T08:45:34.849Z,28.80
2019-03-15T08:48:04.445Z,28.69
2019-03-15T08:50:33.970Z,28.64
2019-03-15T08:53:03.497Z,28.57
2019-03-15T08:55:32.991Z,28.51
2019-03-15T08:58:13.314Z,28.40
2019-03-15T09:00:33.850Z,28.31
2019-03-15T09:03:03.417Z,28.24
2019-03-15T09:05:32.894Z,28.17
2019-03-15T09:08:02.401Z,28.14
2019-03-15T09:10:32.029Z,28.05
2019-03-15T09:13:01.633Z,27.96
2019-03-15T09:15:31.141Z,27.91
2019-03-15T09:18:00.671Z,27.85
2019-03-15T09:20:30.777Z,27.77
2019-03-15T09:23:00.439Z,27.70
2019-03-15T09:25:30.019Z,27.69
2019-03-15T09:27:59.505Z,27.61
2019-03-15T09:30:28.968Z,27.60
2019-03-15T09:32:58.505Z,27.53
2019-03-15T09:35:28.036Z,27.48
2019-03-15T09:37:57.513Z,27.45
2019-03-15T09:40:27.116Z,27.38
2019-03-15T09:42:59.754Z,27.33
2019-03-15T09:45:27.901Z,27.29
2019-03-15T09:47:57.453Z,27.25
2019-03-15T09:50:36.046Z,27.20
2019-03-15T09:52:58.267Z,27.19
2019-03-15T09:55:32.993Z,27.13
2019-03-15T09:57:59.100Z,27.10
2019-03-15T10:00:28.758Z,27.05
2019-03-15T10:02:58.382Z,27.04
2019-03-15T10:05:27.849Z,27.01
2019-03-15T10:07:57.325Z,26.97
2019-03-15T10:10:26.969Z,26.93
2019-03-15T10:13:05.749Z,26.91
2019-03-15T10:15:27.615Z,26.88
2019-03-15T10:17:57.225Z,26.83
2019-03-15T10:20:26.727Z,26.80
2019-03-15T10:23:05.305Z,26.77
2019-03-15T10:25:27.517Z,26.75
2019-03-15T10:27:57.016Z,26.71
2019-03-15T10:30:26.491Z,26.72
2019-03-15T10:32:56.051Z,26.69
2019-03-15T10:35:25.533Z,26.67
2019-03-15T10:37:55.024Z,26.65
2019-03-15T10:40:24.639Z,26.63
2019-03-15T10:42:55.700Z,26.64
2019-03-15T10:45:25.530Z,26.60
2019-03-15T10:47:55.028Z,26.56
2019-03-15T10:50:24.618Z,26.57
2019-03-15T10:52:54.334Z,26.55
2019-03-15T10:55:23.783Z,26.51
2019-03-15T10:57:53.306Z,26.48
2019-03-15T11:00:22.921Z,26.46
2019-03-15T11:02:52.431Z,26.46
2019-03-15T11:05:22.079Z,26.43
2019-03-15T11:07:51.702Z,26.38
2019-03-15T11:10:21.186Z,26.36
2019-03-15T11:12:50.770Z,26.37
2019-03-15T11:15:20.184Z,26.34
2019-03-15T11:17:49.682Z,26.34
2019-03-15T11:20:19.185Z,26.31
2019-03-15T11:22:48.770Z,26.30
2019-03-15T11:25:18.267Z,26.30
2019-03-15T11:27:47.742Z,26.26
2019-03-15T11:30:17.374Z,26.27
2019-03-15T11:32:46.862Z,26.24
2019-03-15T11:35:16.516Z,26.20
2019-03-15T11:37:46.065Z,26.19
2019-03-15T11:40:18.875Z,26.18
2019-03-15T11:42:46.800Z,26.16
2019-03-15T11:45:16.447Z,26.18
2019-03-15T11:48:01.946Z,26.14
2019-03-15T11:50:17.324Z,26.13
2019-03-15T11:52:46.894Z,26.10
2019-03-15T11:55:16.470Z,26.12
2019-03-15T11:57:45.952Z,26.10
2019-03-15T12:00:15.606Z,26.08
2019-03-15T12:02:45.193Z,26.06
2019-03-15T12:05:15.188Z,26.03
2019-03-15T12:07:44.741Z,26.02
2019-03-15T12:10:14.380Z,26.01
2019-03-15T12:12:44.087Z,25.99
2019-03-15T12:15:13.608Z,25.99
2019-03-15T12:17:43.122Z,26.00
2019-03-15T12:20:13.111Z,25.97
2019-03-15T12:22:42.652Z,25.98
2019-03-15T12:25:12.334Z,25.97
2019-03-15T12:27:41.836Z,25.97
2019-03-15T12:30:11.435Z,25.95
2019-03-15T12:32:40.955Z,25.93
2019-03-15T12:35:11.164Z,25.93
2019-03-15T12:37:40.707Z,25.91
2019-03-15T12:40:10.851Z,25.91
2019-03-15T12:42:40.373Z,25.88
2019-03-15T12:45:10.166Z,25.90
2019-03-15T12:47:39.686Z,25.88
2019-03-15T12:50:09.869Z,25.89
2019-03-15T12:52:46.975Z,25.88
2019-03-15T12:55:10.631Z,25.87
2019-03-15T12:57:40.220Z,25.86
2019-03-15T13:00:12.152Z,25.86
2019-03-15T13:02:41.625Z,25.87
2019-03-15T13:05:11.265Z,25.88
2019-03-15T13:07:40.745Z,25.85
2019-03-15T13:10:11.624Z,25.85
2019-03-15T13:12:41.106Z,25.85
2019-03-15T13:15:12.079Z,25.86
2019-03-15T13:17:41.622Z,25.86
2019-03-15T13:20:11.655Z,25.88
2019-03-15T13:22:41.183Z,26.09
2019-03-15T13:25:10.855Z,26.43
2019-03-15T13:27:40.371Z,26.79
2019-03-15T13:30:10.187Z,27.11
2019-03-15T13:32:42.245Z,27.23
2019-03-15T13:35:12.075Z,27.40
2019-03-15T13:37:43.209Z,27.68
2019-03-15T13:40:12.985Z,27.83
2019-03-15T13:42:42.536Z,27.96
2019-03-15T13:45:12.158Z,28.18
2019-03-15T13:47:41.699Z,28.17
2019-03-15T13:50:12.085Z,28.20
2019-03-15T13:52:41.550Z,28.20
2019-03-15T13:55:11.162Z,28.25
2019-03-15T13:57:40.634Z,28.33
2019-03-15T14:00:14.075Z,28.30
2019-03-15T14:02:43.642Z,28.39
2019-03-15T14:05:13.118Z,28.41
2019-03-15T14:07:42.758Z,28.30
2019-03-15T14:10:12.332Z,28.23
2019-03-15T14:12:41.832Z,28.20
2019-03-15T14:15:11.951Z,28.18
2019-03-15T14:17:41.482Z,28.18
2019-03-15T14:20:11.399Z,28.11
2019-03-15T14:22:40.858Z,28.07
2019-03-15T14:25:11.486Z,28.03
2019-03-15T14:27:40.986Z,27.99
2019-03-15T14:30:11.798Z,27.96
2019-03-15T14:32:41.434Z,27.93
2019-03-15T14:35:11.112Z,27.86
2019-03-15T14:37:40.669Z,27.83
2019-03-15T14:40:10.673Z,27.79
2019-03-15T14:42:40.381Z,27.76
2019-03-15T14:45:10.992Z,27.71
2019-03-15T14:47:40.524Z,27.67
2019-03-15T14:50:10.160Z,27.60
2019-03-15T14:52:39.681Z,27.58
2019-03-15T14:55:09.189Z,27.56
2019-03-15T14:57:51.158Z,27.52
2019-03-15T15:00:11.661Z,27.50
2019-03-15T15:02:41.128Z,27.50
2019-03-15T15:05:11.789Z,27.44
2019-03-15T15:07:41.469Z,27.41
2019-03-15T15:10:11.589Z,27.38
2019-03-15T15:12:41.146Z,27.38
2019-03-15T15:15:12.206Z,27.42
2019-03-15T15:17:41.986Z,27.48
2019-03-15T15:20:11.717Z,27.39
2019-03-15T15:22:41.212Z,27.45
2019-03-15T15:25:10.898Z,27.39
2019-03-15T15:27:41.321Z,27.32
2019-03-15T15:30:11.342Z,27.34
2019-03-15T15:32:40.917Z,27.29
2019-03-15T15:35:10.542Z,27.29
2019-03-15T15:37:40.091Z,27.25
2019-03-15T15:40:11.275Z,27.25
2019-03-15T15:42:40.845Z,27.21
2019-03-15T15:45:10.401Z,27.14
2019-03-15T15:47:40.007Z,27.13
2019-03-15T15:50:10.098Z,27.09
2019-03-15T15:52:39.596Z,27.09
2019-03-15T15:55:09.417Z,27.08
2019-03-15T15:57:38.895Z,27.04
2019-03-15T16:00:09.958Z,27.00
2019-03-15T16:02:39.472Z,26.98
2019-03-15T16:05:09.340Z,26.96
2019-03-15T16:07:38.791Z,26.94
2019-03-15T16:10:10.306Z,26.91
2019-03-15T16:12:39.769Z,26.87
2019-03-15T16:15:10.273Z,26.87
2019-03-15T16:17:39.795Z,26.84
2019-03-15T16:20:09.770Z,26.81
2019-03-15T16:22:39.366Z,26.81
2019-03-15T16:25:09.033Z,26.79
2019-03-15T16:27:38.538Z,26.76
2019-03-15T16:30:11.839Z,26.74
2019-03-15T16:32:41.375Z,26.76
2019-03-15T16:35:11.661Z,26.74
2019-03-15T16:37:41.291Z,26.71
2019-03-15T16:40:11.120Z,26.67
2019-03-15T16:42:40.596Z,26.65
2019-03-15T16:45:15.044Z,26.64
2019-03-15T16:47:43.822Z,26.63
2019-03-15T16:50:13.525Z,26.60
2019-03-15T16:52:42.998Z,26.59
2019-03-15T16:55:12.738Z,26.59
2019-03-15T16:57:42.235Z,26.57
2019-03-15T17:00:12.353Z,26.58
2019-03-15T17:02:41.900Z,26.55
2019-03-15T17:05:11.583Z,26.50
2019-03-15T17:07:41.147Z,26.52
2019-03-15T17:10:11.097Z,26.48
2019-03-15T17:12:40.578Z,26.48
2019-03-15T17:15:11.544Z,26.42
2019-03-15T17:17:41.077Z,26.40
2019-03-15T17:20:11.478Z,26.36
2019-03-15T17:22:40.995Z,26.35
2019-03-15T17:25:11.139Z,26.34
2019-03-15T17:27:40.658Z,26.30
2019-03-15T17:30:12.098Z,26.34
2019-03-15T17:32:42.538Z,26.30
2019-03-15T17:35:12.325Z,26.24
2019-03-15T17:37:41.944Z,26.23
2019-03-15T17:40:12.599Z,26.21
2019-03-15T17:42:42.091Z,26.20
2019-03-15T17:45:11.632Z,26.18
2019-03-15T17:47:41.170Z,26.23
2019-03-15T17:50:13.079Z,26.19
2019-03-15T17:52:42.683Z,26.15
2019-03-15T17:55:12.571Z,26.18
2019-03-15T17:57:45.461Z,26.15
2019-03-15T18:00:23.562Z,26.11
2019-03-15T18:02:53.159Z,26.10
2019-03-15T18:05:22.647Z,26.18
2019-03-15T18:07:52.212Z,26.29
2019-03-15T18:10:21.716Z,26.41
2019-03-15T18:12:51.200Z,26.48
2019-03-15T18:15:20.811Z,26.50
2019-03-15T18:17:50.390Z,26.48
2019-03-15T18:20:19.967Z,26.41
2019-03-15T18:22:49.545Z,26.34
2019-03-15T18:25:19.114Z,26.34
2019-03-15T18:27:48.905Z,26.32
2019-03-15T18:30:18.708Z,26.29
2019-03-15T18:32:48.215Z,26.39
2019-03-15T18:35:17.738Z,26.48
2019-03-15T18:37:47.329Z,26.63
2019-03-15T18:40:17.171Z,26.68
2019-03-15T18:42:46.804Z,26.72
2019-03-15T18:45:16.579Z,26.75
2019-03-15T18:47:46.062Z,26.92
2019-03-15T18:50:18.264Z,26.81
2019-03-15T18:52:47.758Z,26.77
2019-03-15T18:55:17.293Z,26.83
2019-03-15T18:57:46.847Z,26.76
2019-03-15T19:00:18.139Z,26.74
2019-03-15T19:02:47.713Z,26.67
2019-03-15T19:05:17.262Z,26.64
2019-03-15T19:07:46.868Z,26.66
2019-03-15T19:10:16.751Z,26.57
2019-03-15T19:12:46.340Z,26.52
2019-03-15T19:15:15.973Z,26.53
2019-03-15T19:17:45.539Z,26.60
2019-03-15T19:20:15.043Z,26.67
2019-03-15T19:22:44.775Z,26.74
2019-03-15T19:25:14.602Z,26.76
2019-03-15T19:27:44.112Z,26.77
2019-03-15T19:30:14.138Z,26.80
2019-03-15T19:32:43.725Z,26.81
2019-03-15T19:35:13.262Z,26.85
2019-03-15T19:37:42.801Z,26.85
2019-03-15T19:40:12.914Z,26.85
2019-03-15T19:42:45.143Z,26.84
2019-03-15T19:45:14.245Z,26.86
2019-03-15T19:47:43.923Z,26.89
2019-03-15T19:50:14.379Z,26.93
2019-03-15T19:52:43.933Z,26.90
2019-03-15T19:55:13.721Z,26.93
2019-03-15T19:57:43.228Z,26.94
2019-03-15T20:00:14.547Z,26.92
2019-03-15T20:02:44.151Z,26.92
2019-03-15T20:05:14.072Z,26.88
2019-03-15T20:07:43.730Z,26.89
2019-03-15T20:10:16.465Z,26.87
2019-03-15T20:12:45.140Z,26.87
2019-03-15T20:15:14.948Z,26.85
2019-03-15T20:17:44.575Z,26.84
2019-03-15T20:20:14.241Z,26.84
2019-03-15T20:22:43.874Z,26.87
2019-03-15T20:25:14.485Z,26.84
2019-03-15T20:27:44.195Z,26.87
2019-03-15T20:30:21.334Z,26.85
2019-03-15T20:32:46.772Z,26.84
2019-03-15T20:35:16.319Z,26.87
2019-03-15T20:37:45.861Z,26.89
2019-03-15T20:40:15.630Z,26.94
2019-03-15T20:42:45.229Z,26.97
2019-03-15T20:45:15.312Z,27.01
2019-03-15T20:47:44.839Z,27.01
2019-03-15T20:50:14.534Z,27.02
2019-03-15T20:52:44.051Z,27.04
2019-03-15T20:55:13.634Z,27.04
2019-03-15T20:57:43.233Z,27.02
2019-03-15T21:00:14.490Z,26.99
2019-03-15T21:02:44.036Z,26.99
2019-03-15T21:05:13.876Z,26.95
2019-03-15T21:07:44.044Z,27.04
2019-03-15T21:10:13.812Z,27.03
2019-03-15T21:12:43.398Z,27.03
2019-03-15T21:15:13.079Z,26.95
2019-03-15T21:17:42.564Z,26.91
2019-03-15T21:20:14.051Z,26.86
2019-03-15T21:22:43.630Z,26.81
2019-03-15T21:25:13.082Z,26.77
2019-03-15T21:27:52.802Z,26.77
2019-03-15T21:30:15.217Z,26.73
2019-03-15T21:32:44.939Z,26.70
2019-03-15T21:35:15.675Z,26.67
2019-03-15T21:37:45.199Z,26.64
2019-03-15T21:40:14.721Z,26.62
2019-03-15T21:42:44.384Z,26.58
2019-03-15T21:45:14.003Z,26.58
2019-03-15T21:47:43.566Z,26.47
2019-03-15T21:50:13.622Z,26.44
2019-03-15T21:52:43.220Z,26.46
2019-03-15T21:55:12.734Z,26.38
2019-03-15T21:57:42.226Z,26.35
2019-03-15T22:00:13.246Z,26.31
2019-03-15T22:02:42.755Z,26.30
2019-03-15T22:05:12.485Z,26.25
2019-03-15T22:07:43.164Z,26.26
2019-03-15T22:10:12.680Z,26.29
2019-03-15T22:12:42.237Z,26.29
2019-03-15T22:15:11.826Z,26.27
2019-03-15T22:17:41.631Z,26.24
2019-03-15T22:20:11.494Z,26.25
2019-03-15T22:22:41.852Z,26.26
2019-03-15T22:25:11.544Z,26.31
2019-03-15T22:27:42.268Z,26.31
2019-03-15T22:30:12.165Z,26.30
2019-03-15T22:32:41.703Z,26.28
2019-03-15T22:35:11.557Z,26.33
2019-03-15T22:37:41.136Z,26.31
2019-03-15T22:40:11.612Z,26.32
2019-03-15T22:42:41.198Z,26.33
2019-03-15T22:45:10.878Z,26.33
2019-03-15T22:47:40.413Z,26.38
2019-03-15T22:50:10.484Z,26.41
2019-03-15T22:52:39.983Z,26.35
2019-03-15T22:55:10.000Z,26.35
2019-03-15T22:57:39.504Z,26.33
2019-03-15T23:00:12.180Z,26.31
2019-03-15T23:02:42.017Z,26.27
2019-03-15T23:05:11.792Z,26.24
2019-03-15T23:07:43.529Z,26.22
2019-03-15T23:10:13.322Z,26.21
2019-03-15T23:12:42.870Z,26.20
2019-03-15T23:15:12.621Z,26.21
2019-03-15T23:17:42.100Z,26.18
2019-03-15T23:20:11.621Z,26.19
2019-03-15T23:22:41.205Z,26.19
2019-03-15T23:25:10.883Z,26.17
2019-03-15T23:27:40.446Z,26.17
2019-03-15T23:30:10.037Z,26.16
2019-03-15T23:32:39.812Z,26.13
2019-03-15T23:35:09.390Z,26.13
2019-03-15T23:37:38.946Z,26.13
2019-03-15T23:40:08.622Z,26.13
2019-03-15T23:42:38.159Z,26.10
2019-03-15T23:45:07.993Z,26.11
2019-03-15T23:47:37.554Z,26.10
2019-03-15T23:50:07.376Z,26.09
2019-03-15T23:52:36.995Z,26.08
2019-03-15T23:55:06.512Z,26.07
2019-03-15T23:57:36.079Z,26.07
